sensor_id;sensor_type;location;lat;lon;timestamp;pressure;altitude;pressure_sealevel;temperature;humidity
68226;BME280;55045;49.410;11.030;2023-08-30T00:01:40;97458.44;;;12.22;100.00
68226;BME280;55045;49.410;11.030;2023-08-30T00:04:43;97453.75;;;12.15;100.00
68226;BME280;55045;49.410;11.030;2023-08-30T00:07:48;97450.66;;;12.22;100.00
68226;BME280;55045;49.410;11.030;2023-08-30T00:10:51;97461.47;;;12.16;100.00
68226;BME280;55045;49.410;11.030;2023-08-30T00:14:02;97459.03;;;12.40;100.00
68226;BME280;55045;49.410;11.030;2023-08-30T00:17:07;97461.06;;;12.22;100.00
68226;BME280;55045;49.410;11.030;2023-08-30T00:20:11;97455.63;;;12.13;100.00
68226;BME280;55045;49.410;11.030;2023-08-30T00:23:16;97455.19;;;12.06;100.00
68226;BME280;55045;49.410;11.030;2023-08-30T00:26:19;97461.19;;;12.33;100.00
68226;BME280;55045;49.410;11.030;2023-08-30T00:29:22;97460.09;;;12.10;100.00
68226;BME280;55045;49.410;11.030;2023-08-30T00:32:26;97453.72;;;12.02;100.00
68226;BME280;55045;49.410;11.030;2023-08-30T00:35:29;97454.97;;;11.96;100.00
68226;BME280;55045;49.410;11.030;2023-08-30T00:38:34;97457.34;;;12.39;100.00
68226;BME280;55045;49.410;11.030;2023-08-30T00:41:37;97456.97;;;12.58;100.00
68226;BME280;55045;49.410;11.030;2023-08-30T00:44:40;97454.41;;;12.18;100.00
68226;BME280;55045;49.410;11.030;2023-08-30T00:47:43;97456.94;;;12.05;100.00
68226;BME280;55045;49.410;11.030;2023-08-30T00:50:47;97457.03;;;12.04;100.00
68226;BME280;55045;49.410;11.030;2023-08-30T00:53:55;97457.78;;;12.06;100.00
68226;BME280;55045;49.410;11.030;2023-08-30T00:57:00;97447.78;;;12.00;100.00
68226;BME280;55045;49.410;11.030;2023-08-30T01:00:05;97447.78;;;12.00;100.00
68226;BME280;55045;49.410;11.030;2023-08-30T01:03:14;97451.97;;;12.15;100.00
68226;BME280;55045;49.410;11.030;2023-08-30T01:06:19;97448.81;;;11.97;100.00
68226;BME280;55045;49.410;11.030;2023-08-30T01:09:24;97454.50;;;12.17;100.00
68226;BME280;55045;49.410;11.030;2023-08-30T01:12:31;97452.38;;;12.09;100.00
68226;BME280;55045;49.410;11.030;2023-08-30T01:15:42;97446.72;;;11.90;100.00
68226;BME280;55045;49.410;11.030;2023-08-30T01:18:46;97441.16;;;11.81;100.00
68226;BME280;55045;49.410;11.030;2023-08-30T01:21:53;97446.91;;;11.87;100.00
68226;BME280;55045;49.410;11.030;2023-08-30T01:25:12;97452.28;;;11.83;100.00
68226;BME280;55045;49.410;11.030;2023-08-30T01:28:23;97449.69;;;11.83;100.00
68226;BME280;55045;49.410;11.030;2023-08-30T01:31:29;97451.34;;;11.85;100.00
68226;BME280;55045;49.410;11.030;2023-08-30T01:34:36;97452.53;;;11.93;100.00
68226;BME280;55045;49.410;11.030;2023-08-30T01:37:40;97453.66;;;11.89;100.00
68226;BME280;55045;49.410;11.030;2023-08-30T01:40:44;97448.16;;;12.21;100.00
68226;BME280;55045;49.410;11.030;2023-08-30T01:43:49;97451.66;;;12.07;100.00
68226;BME280;55045;49.410;11.030;2023-08-30T01:46:55;97458.91;;;12.02;100.00
68226;BME280;55045;49.410;11.030;2023-08-30T01:49:59;97458.28;;;11.98;100.00
68226;BME280;55045;49.410;11.030;2023-08-30T01:53:03;97447.88;;;11.98;100.00
68226;BME280;55045;49.410;11.030;2023-08-30T01:56:07;97455.78;;;11.97;100.00
68226;BME280;55045;49.410;11.030;2023-08-30T01:59:12;97456.66;;;12.10;100.00
68226;BME280;55045;49.410;11.030;2023-08-30T02:02:16;97454.41;;;12.18;100.00
68226;BME280;55045;49.410;11.030;2023-08-30T02:05:19;97459.53;;;12.05;100.00
68226;BME280;55045;49.410;11.030;2023-08-30T02:08:26;97455.41;;;12.16;100.00
68226;BME280;55045;49.410;11.030;2023-08-30T02:11:32;97463.59;;;12.36;100.00
68226;BME280;55045;49.410;11.030;2023-08-30T02:14:39;97455.41;;;12.16;100.00
68226;BME280;55045;49.410;11.030;2023-08-30T02:17:44;97460.91;;;12.11;100.00
68226;BME280;55045;49.410;11.030;2023-08-30T02:20:48;97459.47;;;12.07;100.00
68226;BME280;55045;49.410;11.030;2023-08-30T02:23:51;97457.69;;;12.07;100.00
68226;BME280;55045;49.410;11.030;2023-08-30T02:26:54;97447.91;;;12.11;100.00
68226;BME280;55045;49.410;11.030;2023-08-30T02:29:59;97449.91;;;12.60;100.00
68226;BME280;55045;49.410;11.030;2023-08-30T02:33:03;97444.25;;;12.53;100.00
68226;BME280;55045;49.410;11.030;2023-08-30T02:36:06;97445.59;;;12.46;100.00
68226;BME280;55045;49.410;11.030;2023-08-30T02:39:11;97438.44;;;12.50;100.00
68226;BME280;55045;49.410;11.030;2023-08-30T02:42:14;97439.16;;;12.64;100.00
68226;BME280;55045;49.410;11.030;2023-08-30T02:45:19;97438.72;;;12.32;100.00
68226;BME280;55045;49.410;11.030;2023-08-30T02:48:22;97439.13;;;12.26;100.00
68226;BME280;55045;49.410;11.030;2023-08-30T02:51:25;97443.56;;;12.24;100.00
68226;BME280;55045;49.410;11.030;2023-08-30T02:54:29;97444.72;;;12.20;100.00
68226;BME280;55045;49.410;11.030;2023-08-30T02:57:32;97442.34;;;12.30;100.00
68226;BME280;55045;49.410;11.030;2023-08-30T03:00:36;97441.56;;;12.15;100.00
68226;BME280;55045;49.410;11.030;2023-08-30T03:03:42;97444.88;;;12.44;100.00
68226;BME280;55045;49.410;11.030;2023-08-30T03:06:45;97437.03;;;12.19;100.00
68226;BME280;55045;49.410;11.030;2023-08-30T03:09:51;97433.97;;;12.52;100.00
68226;BME280;55045;49.410;11.030;2023-08-30T03:12:55;97444.97;;;12.30;100.00
68226;BME280;55045;49.410;11.030;2023-08-30T03:15:59;97438.31;;;12.38;100.00
68226;BME280;55045;49.410;11.030;2023-08-30T03:19:03;97444.19;;;12.15;100.00
68226;BME280;55045;49.410;11.030;2023-08-30T03:22:07;97439.81;;;12.16;100.00
68226;BME280;55045;49.410;11.030;2023-08-30T03:25:11;97437.84;;;12.06;100.00
68226;BME280;55045;49.410;11.030;2023-08-30T03:28:14;97449.56;;;11.99;100.00
68226;BME280;55045;49.410;11.030;2023-08-30T03:34:29;97451.00;;;12.30;100.00
68226;BME280;55045;49.410;11.030;2023-08-30T03:37:32;97447.19;;;12.09;100.00
68226;BME280;55045;49.410;11.030;2023-08-30T03:40:36;97443.09;;;12.32;100.00
68226;BME280;55045;49.410;11.030;2023-08-30T03:43:42;97444.22;;;12.28;100.00
68226;BME280;55045;49.410;11.030;2023-08-30T03:46:45;97436.22;;;12.44;100.00
68226;BME280;55045;49.410;11.030;2023-08-30T03:49:50;97441.72;;;12.26;100.00
68226;BME280;55045;49.410;11.030;2023-08-30T03:52:53;97446.00;;;12.27;100.00
68226;BME280;55045;49.410;11.030;2023-08-30T03:55:57;97454.81;;;12.25;100.00
68226;BME280;55045;49.410;11.030;2023-08-30T03:59:01;97449.00;;;12.21;100.00
68226;BME280;55045;49.410;11.030;2023-08-30T04:02:04;97448.50;;;12.02;100.00
68226;BME280;55045;49.410;11.030;2023-08-30T04:05:10;97449.66;;;11.98;100.00
68226;BME280;55045;49.410;11.030;2023-08-30T04:08:13;97448.81;;;11.97;100.00
68226;BME280;55045;49.410;11.030;2023-08-30T04:11:17;97445.38;;;11.97;100.00
68226;BME280;55045;49.410;11.030;2023-08-30T04:14:20;97444.59;;;12.09;100.00
68226;BME280;55045;49.410;11.030;2023-08-30T04:17:25;97448.50;;;12.02;100.00
68226;BME280;55045;49.410;11.030;2023-08-30T04:20:30;97460.22;;;11.95;100.00
68226;BME280;55045;49.410;11.030;2023-08-30T04:23:34;97461.16;;;11.94;100.00
68226;BME280;55045;49.410;11.030;2023-08-30T04:26:37;97461.47;;;11.89;100.00
68226;BME280;55045;49.410;11.030;2023-08-30T04:29:41;97461.38;;;11.91;100.00
68226;BME280;55045;49.410;11.030;2023-08-30T04:32:47;97459.16;;;11.85;100.00
68226;BME280;55045;49.410;11.030;2023-08-30T04:35:53;97459.91;;;11.87;100.00
68226;BME280;55045;49.410;11.030;2023-08-30T04:38:56;97455.72;;;11.84;100.00
68226;BME280;55045;49.410;11.030;2023-08-30T04:42:05;97455.72;;;11.84;100.00
68226;BME280;55045;49.410;11.030;2023-08-30T04:45:09;97460.47;;;12.04;100.00
68226;BME280;55045;49.410;11.030;2023-08-30T04:48:12;97469.44;;;12.53;100.00
68226;BME280;55045;49.410;11.030;2023-08-30T04:51:19;97466.34;;;12.21;100.00
68226;BME280;55045;49.410;11.030;2023-08-30T04:54:22;97458.09;;;12.14;100.00
68226;BME280;55045;49.410;11.030;2023-08-30T04:57:26;97456.06;;;12.19;100.00
68226;BME280;55045;49.410;11.030;2023-08-30T05:00:29;97454.41;;;12.18;100.00
68226;BME280;55045;49.410;11.030;2023-08-30T05:03:33;97461.25;;;12.19;100.00
68226;BME280;55045;49.410;11.030;2023-08-30T05:06:38;97458.91;;;12.29;100.00
68226;BME280;55045;49.410;11.030;2023-08-30T05:09:41;97460.69;;;12.41;100.00
68226;BME280;55045;49.410;11.030;2023-08-30T05:12:44;97464.56;;;12.61;100.00
68226;BME280;55045;49.410;11.030;2023-08-30T05:15:54;97464.34;;;12.51;100.00
68226;BME280;55045;49.410;11.030;2023-08-30T05:18:57;97456.16;;;12.83;100.00
68226;BME280;55045;49.410;11.030;2023-08-30T05:22:02;97454.28;;;12.72;100.00
68226;BME280;55045;49.410;11.030;2023-08-30T05:25:06;97455.09;;;12.60;100.00
68226;BME280;55045;49.410;11.030;2023-08-30T05:28:09;97448.63;;;12.53;100.00
68226;BME280;55045;49.410;11.030;2023-08-30T05:31:12;97441.38;;;12.58;100.00
68226;BME280;55045;49.410;11.030;2023-08-30T05:35:03;97445.41;;;12.62;100.00
68226;BME280;55045;49.410;11.030;2023-08-30T05:38:31;97435.50;;;12.54;100.00
68226;BME280;55045;49.410;11.030;2023-08-30T05:41:57;97448.22;;;12.59;100.00
68226;BME280;55045;49.410;11.030;2023-08-30T05:45:00;97444.03;;;12.56;100.00
68226;BME280;55045;49.410;11.030;2023-08-30T05:48:05;97444.59;;;12.61;100.00
68226;BME280;55045;49.410;11.030;2023-08-30T05:51:09;97442.09;;;12.60;100.00
68226;BME280;55045;49.410;11.030;2023-08-30T05:54:14;97450.94;;;12.70;100.00
68226;BME280;55045;49.410;11.030;2023-08-30T05:57:17;97447.00;;;12.77;100.00
68226;BME280;55045;49.410;11.030;2023-08-30T06:00:22;97456.47;;;12.78;100.00
68226;BME280;55045;49.410;11.030;2023-08-30T06:03:25;97454.47;;;12.94;100.00
68226;BME280;55045;49.410;11.030;2023-08-30T06:06:29;97447.59;;;12.93;100.00
68226;BME280;55045;49.410;11.030;2023-08-30T06:09:33;97458.22;;;12.90;100.00
68226;BME280;55045;49.410;11.030;2023-08-30T06:12:36;97452.81;;;12.93;100.00
68226;BME280;55045;49.410;11.030;2023-08-30T06:15:39;97447.38;;;12.96;100.00
68226;BME280;55045;49.410;11.030;2023-08-30T06:18:43;97448.22;;;13.10;100.00
68226;BME280;55045;49.410;11.030;2023-08-30T06:21:46;97448.72;;;13.15;100.00
68226;BME280;55045;49.410;11.030;2023-08-30T06:24:50;97441.97;;;13.25;100.00
68226;BME280;55045;49.410;11.030;2023-08-30T06:27:56;97453.66;;;13.32;100.00
68226;BME280;55045;49.410;11.030;2023-08-30T06:31:00;97446.78;;;13.31;100.00
68226;BME280;55045;49.410;11.030;2023-08-30T06:34:04;97459.00;;;14.50;100.00
68226;BME280;55045;49.410;11.030;2023-08-30T06:37:07;97456.50;;;15.40;100.00
68226;BME280;55045;49.410;11.030;2023-08-30T06:40:13;97459.06;;;16.28;100.00
68226;BME280;55045;49.410;11.030;2023-08-30T06:43:16;97438.66;;;17.05;100.00
68226;BME280;55045;49.410;11.030;2023-08-30T06:46:20;97419.19;;;17.28;100.00
68226;BME280;55045;49.410;11.030;2023-08-30T06:49:24;97416.59;;;17.38;100.00
68226;BME280;55045;49.410;11.030;2023-08-30T06:52:27;97422.66;;;17.79;100.00
68226;BME280;55045;49.410;11.030;2023-08-30T06:55:32;97418.81;;;18.22;100.00
68226;BME280;55045;49.410;11.030;2023-08-30T06:58:35;97418.06;;;18.78;100.00
68226;BME280;55045;49.410;11.030;2023-08-30T07:01:38;97410.47;;;19.21;100.00
68226;BME280;55045;49.410;11.030;2023-08-30T07:04:42;97401.31;;;19.53;100.00
68226;BME280;55045;49.410;11.030;2023-08-30T07:07:45;97399.53;;;19.53;100.00
68226;BME280;55045;49.410;11.030;2023-08-30T07:10:51;97403.22;;;20.06;100.00
68226;BME280;55045;49.410;11.030;2023-08-30T07:13:54;97406.91;;;20.13;100.00
68226;BME280;55045;49.410;11.030;2023-08-30T07:16:57;97399.41;;;20.62;100.00
68226;BME280;55045;49.410;11.030;2023-08-30T07:20:01;97396.09;;;20.60;100.00
68226;BME280;55045;49.410;11.030;2023-08-30T07:23:06;97393.44;;;19.98;100.00
68226;BME280;55045;49.410;11.030;2023-08-30T07:26:13;97391.84;;;19.88;100.00
68226;BME280;55045;49.410;11.030;2023-08-30T07:29:16;97396.59;;;20.55;100.00
68226;BME280;55045;49.410;11.030;2023-08-30T07:32:20;97396.41;;;20.83;100.00
68226;BME280;55045;49.410;11.030;2023-08-30T07:35:23;97396.19;;;21.78;100.00
68226;BME280;55045;49.410;11.030;2023-08-30T07:38:26;97398.19;;;21.76;100.00
68226;BME280;55045;49.410;11.030;2023-08-30T07:41:34;97395.38;;;21.78;100.00
68226;BME280;55045;49.410;11.030;2023-08-30T07:44:37;97402.34;;;21.87;100.00
68226;BME280;55045;49.410;11.030;2023-08-30T07:47:40;97403.06;;;22.22;100.00
68226;BME280;55045;49.410;11.030;2023-08-30T07:50:44;97397.75;;;22.87;100.00
68226;BME280;55045;49.410;11.030;2023-08-30T07:53:47;97405.03;;;22.85;100.00
68226;BME280;55045;49.410;11.030;2023-08-30T07:56:55;97404.84;;;22.13;100.00
68226;BME280;55045;49.410;11.030;2023-08-30T07:59:58;97400.41;;;22.13;100.00
68226;BME280;55045;49.410;11.030;2023-08-30T08:03:02;97396.41;;;22.01;100.00
68226;BME280;55045;49.410;11.030;2023-08-30T08:06:06;97392.19;;;21.58;100.00
68226;BME280;55045;49.410;11.030;2023-08-30T08:09:09;97391.81;;;22.11;100.00
68226;BME280;55045;49.410;11.030;2023-08-30T08:12:14;97391.75;;;21.79;100.00
68226;BME280;55045;49.410;11.030;2023-08-30T08:15:17;97391.84;;;22.20;100.00
68226;BME280;55045;49.410;11.030;2023-08-30T08:18:20;97382.53;;;21.33;100.00
68226;BME280;55045;49.410;11.030;2023-08-30T08:21:24;97383.44;;;21.58;100.00
68226;BME280;55045;49.410;11.030;2023-08-30T08:24:27;97391.81;;;22.60;100.00
68226;BME280;55045;49.410;11.030;2023-08-30T08:27:31;97387.00;;;22.88;100.00
68226;BME280;55045;49.410;11.030;2023-08-30T08:30:35;97389.31;;;24.01;96.32
68226;BME280;55045;49.410;11.030;2023-08-30T08:33:39;97384.00;;;23.47;96.27
68226;BME280;55045;49.410;11.030;2023-08-30T08:36:43;97381.06;;;23.34;94.82
68226;BME280;55045;49.410;11.030;2023-08-30T08:39:46;97382.72;;;22.63;98.23
68226;BME280;55045;49.410;11.030;2023-08-30T08:42:52;97386.84;;;22.74;98.51
68226;BME280;55045;49.410;11.030;2023-08-30T08:45:59;97381.56;;;22.65;96.80
68226;BME280;55045;49.410;11.030;2023-08-30T08:49:08;97374.13;;;22.85;95.49
68226;BME280;55045;49.410;11.030;2023-08-30T08:52:13;97373.19;;;23.17;97.08
68226;BME280;55045;49.410;11.030;2023-08-30T08:55:32;97352.34;;;22.59;99.20
68226;BME280;55045;49.410;11.030;2023-08-30T08:58:38;97364.59;;;23.63;96.87
68226;BME280;55045;49.410;11.030;2023-08-30T09:01:42;97366.44;;;23.85;93.45
68226;BME280;55045;49.410;11.030;2023-08-30T09:04:45;97367.72;;;23.66;94.63
68226;BME280;55045;49.410;11.030;2023-08-30T09:07:49;97372.47;;;23.40;95.61
68226;BME280;55045;49.410;11.030;2023-08-30T09:10:55;97375.66;;;22.31;99.77
68226;BME280;55045;49.410;11.030;2023-08-30T09:14:00;97375.16;;;22.11;100.00
68226;BME280;55045;49.410;11.030;2023-08-30T09:17:04;97379.72;;;21.93;100.00
68226;BME280;55045;49.410;11.030;2023-08-30T09:20:08;97378.94;;;22.33;100.00
68226;BME280;55045;49.410;11.030;2023-08-30T09:23:19;97383.22;;;22.91;99.45
68226;BME280;55045;49.410;11.030;2023-08-30T09:26:23;97377.25;;;22.81;97.32
68226;BME280;55045;49.410;11.030;2023-08-30T09:29:28;97379.75;;;22.58;96.00
68226;BME280;55045;49.410;11.030;2023-08-30T09:34:28;97382.56;;;22.56;97.90
68226;BME280;55045;49.410;11.030;2023-08-30T09:37:32;97379.59;;;22.51;97.01
68226;BME280;55045;49.410;11.030;2023-08-30T09:40:35;97363.19;;;22.88;96.40
68226;BME280;55045;49.410;11.030;2023-08-30T09:43:42;97364.41;;;23.25;93.14
68226;BME280;55045;49.410;11.030;2023-08-30T09:46:46;97370.28;;;23.43;91.80
68226;BME280;55045;49.410;11.030;2023-08-30T09:49:55;97358.84;;;23.12;91.85
68226;BME280;55045;49.410;11.030;2023-08-30T09:52:59;97369.00;;;23.70;89.87
68226;BME280;55045;49.410;11.030;2023-08-30T09:56:04;97370.78;;;22.99;87.66
68226;BME280;55045;49.410;11.030;2023-08-30T09:59:10;97361.19;;;23.38;90.70
68226;BME280;55045;49.410;11.030;2023-08-30T10:02:15;97355.94;;;22.90;92.64
68226;BME280;55045;49.410;11.030;2023-08-30T10:05:20;97359.41;;;22.83;91.90
68226;BME280;55045;49.410;11.030;2023-08-30T10:08:25;97356.13;;;22.56;92.10
68226;BME280;55045;49.410;11.030;2023-08-30T10:11:33;97355.56;;;23.02;93.58
68226;BME280;55045;49.410;11.030;2023-08-30T10:14:36;97349.84;;;22.65;93.77
68226;BME280;55045;49.410;11.030;2023-08-30T10:17:44;97344.81;;;23.11;94.96
68226;BME280;55045;49.410;11.030;2023-08-30T10:20:52;97348.84;;;23.92;90.87
68226;BME280;55045;49.410;11.030;2023-08-30T10:23:58;97340.63;;;23.17;92.50
68226;BME280;55045;49.410;11.030;2023-08-30T10:27:06;97336.78;;;23.27;91.34
68226;BME280;55045;49.410;11.030;2023-08-30T10:30:12;97334.53;;;23.47;91.90
68226;BME280;55045;49.410;11.030;2023-08-30T10:33:16;97328.41;;;23.16;91.73
68226;BME280;55045;49.410;11.030;2023-08-30T10:36:22;97337.06;;;23.41;90.73
68226;BME280;55045;49.410;11.030;2023-08-30T10:39:33;97338.16;;;23.15;93.77
68226;BME280;55045;49.410;11.030;2023-08-30T10:42:37;97342.31;;;22.22;92.43
68226;BME280;55045;49.410;11.030;2023-08-30T10:45:40;97328.75;;;22.25;94.01
68226;BME280;55045;49.410;11.030;2023-08-30T10:48:46;97328.66;;;22.82;94.44
68226;BME280;55045;49.410;11.030;2023-08-30T10:52:01;97328.16;;;23.34;91.41
68226;BME280;55045;49.410;11.030;2023-08-30T10:55:05;97319.19;;;23.04;93.35
68226;BME280;55045;49.410;11.030;2023-08-30T10:58:14;97327.50;;;23.32;90.01
68226;BME280;55045;49.410;11.030;2023-08-30T11:01:20;97329.06;;;22.54;89.91
68226;BME280;55045;49.410;11.030;2023-08-30T11:04:26;97324.88;;;22.76;92.32
68226;BME280;55045;49.410;11.030;2023-08-30T11:07:31;97326.94;;;23.44;90.74
68226;BME280;55045;49.410;11.030;2023-08-30T11:10:34;97321.25;;;23.87;87.26
68226;BME280;55045;49.410;11.030;2023-08-30T11:13:38;97317.06;;;23.69;84.85
68226;BME280;55045;49.410;11.030;2023-08-30T11:16:41;97312.94;;;23.36;90.34
68226;BME280;55045;49.410;11.030;2023-08-30T11:19:44;97317.56;;;23.34;87.72
68226;BME280;55045;49.410;11.030;2023-08-30T11:22:49;97313.66;;;23.83;86.89
68226;BME280;55045;49.410;11.030;2023-08-30T11:25:53;97312.19;;;24.04;81.28
68226;BME280;55045;49.410;11.030;2023-08-30T11:28:56;97311.94;;;23.68;81.50
68226;BME280;55045;49.410;11.030;2023-08-30T11:32:00;97308.00;;;23.87;83.20
68226;BME280;55045;49.410;11.030;2023-08-30T11:35:04;97302.13;;;22.59;86.13
68226;BME280;55045;49.410;11.030;2023-08-30T11:38:09;97287.81;;;23.01;84.15
68226;BME280;55045;49.410;11.030;2023-08-30T11:41:13;97300.09;;;23.24;82.92
68226;BME280;55045;49.410;11.030;2023-08-30T11:44:16;97291.94;;;23.03;86.19
68226;BME280;55045;49.410;11.030;2023-08-30T11:47:23;97281.81;;;23.07;88.63
68226;BME280;55045;49.410;11.030;2023-08-30T11:50:27;97291.31;;;22.77;89.53
68226;BME280;55045;49.410;11.030;2023-08-30T11:53:42;97288.50;;;22.78;88.74
68226;BME280;55045;49.410;11.030;2023-08-30T11:56:47;97288.75;;;22.68;89.61
68226;BME280;55045;49.410;11.030;2023-08-30T11:59:51;97284.78;;;22.56;91.02
68226;BME280;55045;49.410;11.030;2023-08-30T12:02:55;97298.72;;;22.26;91.68
68226;BME280;55045;49.410;11.030;2023-08-30T12:05:58;97281.47;;;22.62;91.58
68226;BME280;55045;49.410;11.030;2023-08-30T12:09:04;97297.41;;;22.30;92.02
68226;BME280;55045;49.410;11.030;2023-08-30T12:12:12;97294.06;;;22.36;93.16
68226;BME280;55045;49.410;11.030;2023-08-30T12:15:15;97285.28;;;22.60;92.36
68226;BME280;55045;49.410;11.030;2023-08-30T12:18:20;97277.31;;;22.68;89.99
68226;BME280;55045;49.410;11.030;2023-08-30T12:21:25;97284.06;;;22.87;90.08
68226;BME280;55045;49.410;11.030;2023-08-30T12:24:40;97285.69;;;23.27;93.56
68226;BME280;55045;49.410;11.030;2023-08-30T12:27:43;97280.59;;;23.48;89.51
68226;BME280;55045;49.410;11.030;2023-08-30T12:30:46;97278.69;;;23.11;91.00
68226;BME280;55045;49.410;11.030;2023-08-30T12:33:50;97279.31;;;23.44;91.38
68226;BME280;55045;49.410;11.030;2023-08-30T12:36:53;97282.72;;;23.61;87.73
68226;BME280;55045;49.410;11.030;2023-08-30T12:40:00;97271.63;;;23.26;88.55
68226;BME280;55045;49.410;11.030;2023-08-30T12:43:03;97279.53;;;23.66;87.40
68226;BME280;55045;49.410;11.030;2023-08-30T12:46:09;97272.00;;;24.15;87.87
68226;BME280;55045;49.410;11.030;2023-08-30T12:49:13;97272.16;;;23.99;85.61
68226;BME280;55045;49.410;11.030;2023-08-30T12:52:16;97271.22;;;23.92;90.80
68226;BME280;55045;49.410;11.030;2023-08-30T12:55:21;97277.44;;;23.61;88.23
68226;BME280;55045;49.410;11.030;2023-08-30T12:58:24;97277.00;;;23.72;87.01
68226;BME280;55045;49.410;11.030;2023-08-30T13:01:27;97272.88;;;23.93;87.04
68226;BME280;55045;49.410;11.030;2023-08-30T13:04:31;97270.22;;;23.93;86.61
68226;BME280;55045;49.410;11.030;2023-08-30T13:07:34;97268.91;;;23.89;86.55
68226;BME280;55045;49.410;11.030;2023-08-30T13:10:38;97266.50;;;24.02;87.45
68226;BME280;55045;49.410;11.030;2023-08-30T13:13:42;97261.41;;;24.15;84.91
68226;BME280;55045;49.410;11.030;2023-08-30T13:16:45;97259.38;;;24.40;84.70
68226;BME280;55045;49.410;11.030;2023-08-30T13:19:49;97258.19;;;24.72;82.33
68226;BME280;55045;49.410;11.030;2023-08-30T13:22:52;97248.69;;;24.33;85.96
68226;BME280;55045;49.410;11.030;2023-08-30T13:25:57;97252.22;;;24.26;84.44
68226;BME280;55045;49.410;11.030;2023-08-30T13:29:00;97244.75;;;24.59;79.74
68226;BME280;55045;49.410;11.030;2023-08-30T13:32:04;97252.63;;;24.67;80.30
68226;BME280;55045;49.410;11.030;2023-08-30T13:35:08;97254.25;;;24.68;79.03
68226;BME280;55045;49.410;11.030;2023-08-30T13:38:11;97236.81;;;24.59;78.52
68226;BME280;55045;49.410;11.030;2023-08-30T13:41:16;97249.81;;;23.78;83.32
68226;BME280;55045;49.410;11.030;2023-08-30T13:44:19;97238.00;;;23.66;87.51
68226;BME280;55045;49.410;11.030;2023-08-30T13:47:22;97236.44;;;22.95;86.23
68226;BME280;55045;49.410;11.030;2023-08-30T13:50:26;97235.19;;;23.37;87.99
68226;BME280;55045;49.410;11.030;2023-08-30T13:53:32;97230.53;;;23.39;90.32
68226;BME280;55045;49.410;11.030;2023-08-30T13:56:36;97233.50;;;22.82;89.74
68226;BME280;55045;49.410;11.030;2023-08-30T13:59:40;97232.66;;;23.20;88.39
68226;BME280;55045;49.410;11.030;2023-08-30T14:02:44;97235.56;;;23.34;88.22
68226;BME280;55045;49.410;11.030;2023-08-30T14:05:47;97243.13;;;23.37;90.05
68226;BME280;55045;49.410;11.030;2023-08-30T14:08:50;97236.44;;;22.95;88.34
68226;BME280;55045;49.410;11.030;2023-08-30T14:11:55;97239.47;;;22.67;92.43
68226;BME280;55045;49.410;11.030;2023-08-30T14:14:58;97239.81;;;23.12;89.80
68226;BME280;55045;49.410;11.030;2023-08-30T14:18:01;97232.56;;;22.66;88.85
68226;BME280;55045;49.410;11.030;2023-08-30T14:21:05;97235.41;;;23.04;88.97
68226;BME280;55045;49.410;11.030;2023-08-30T14:24:08;97240.69;;;23.04;88.58
68226;BME280;55045;49.410;11.030;2023-08-30T14:27:13;97232.81;;;23.19;85.93
68226;BME280;55045;49.410;11.030;2023-08-30T14:30:17;97236.03;;;23.06;88.05
68226;BME280;55045;49.410;11.030;2023-08-30T14:33:20;97242.78;;;23.09;87.52
68226;BME280;55045;49.410;11.030;2023-08-30T14:36:23;97242.75;;;22.86;87.21
68226;BME280;55045;49.410;11.030;2023-08-30T14:39:27;97243.38;;;22.96;88.53
68226;BME280;55045;49.410;11.030;2023-08-30T14:42:33;97243.56;;;22.31;91.84
68226;BME280;55045;49.410;11.030;2023-08-30T14:45:37;97244.56;;;22.38;90.34
68226;BME280;55045;49.410;11.030;2023-08-30T14:48:40;97245.25;;;22.16;86.12
68226;BME280;55045;49.410;11.030;2023-08-30T14:51:43;97239.81;;;22.73;89.52
68226;BME280;55045;49.410;11.030;2023-08-30T14:54:48;97237.72;;;22.60;87.65
68226;BME280;55045;49.410;11.030;2023-08-30T14:57:52;97239.13;;;22.31;84.73
68226;BME280;55045;49.410;11.030;2023-08-30T15:00:56;97233.81;;;22.39;88.64
68226;BME280;55045;49.410;11.030;2023-08-30T15:04:00;97236.91;;;22.51;85.83
68226;BME280;55045;49.410;11.030;2023-08-30T15:07:03;97230.38;;;22.23;84.75
68226;BME280;55045;49.410;11.030;2023-08-30T15:10:07;97225.81;;;22.56;87.75
68226;BME280;55045;49.410;11.030;2023-08-30T15:13:12;97226.47;;;22.58;84.67
68226;BME280;55045;49.410;11.030;2023-08-30T15:16:15;97227.16;;;22.52;88.88
68226;BME280;55045;49.410;11.030;2023-08-30T15:19:18;97230.78;;;22.59;87.48
68226;BME280;55045;49.410;11.030;2023-08-30T15:22:21;97230.69;;;22.83;87.46
68226;BME280;55045;49.410;11.030;2023-08-30T15:25:25;97226.59;;;22.73;89.46
68226;BME280;55045;49.410;11.030;2023-08-30T15:28:29;97227.72;;;22.86;86.83
68226;BME280;55045;49.410;11.030;2023-08-30T15:34:28;97215.00;;;22.34;92.34
68226;BME280;55045;49.410;11.030;2023-08-30T15:37:32;97223.63;;;22.67;92.43
68226;BME280;55045;49.410;11.030;2023-08-30T15:40:36;97225.59;;;22.74;92.35
68226;BME280;55045;49.410;11.030;2023-08-30T15:43:40;97221.56;;;22.94;92.86
68226;BME280;55045;49.410;11.030;2023-08-30T15:46:43;97223.19;;;23.03;89.26
68226;BME280;55045;49.410;11.030;2023-08-30T15:49:48;97223.53;;;23.00;89.38
68226;BME280;55045;49.410;11.030;2023-08-30T15:52:52;97217.31;;;22.77;89.44
68226;BME280;55045;49.410;11.030;2023-08-30T15:55:56;97212.16;;;22.44;92.59
68226;BME280;55045;49.410;11.030;2023-08-30T15:59:00;97213.25;;;22.10;94.07
68226;BME280;55045;49.410;11.030;2023-08-30T16:02:03;97214.34;;;22.32;94.60
68226;BME280;55045;49.410;11.030;2023-08-30T16:05:08;97214.22;;;21.85;96.25
68226;BME280;55045;49.410;11.030;2023-08-30T16:08:13;97213.75;;;21.98;95.94